Current Weather

Brookhaven

Shirley, New York (KHWV)

Report from: Friday, February 23, 2024 2:56 PM EST
Current time: Friday, February 23, 2024 3:52 PM EST

Nearby weather – Weather history – Daily summaries
Weather forecast

Present weatherLight rain
Temperature6.1°C (43.0°F)
Wind chill5.1°C (41.3°F)
Dew point3.9°C (39.0°F)
Winds 3 kts (1.5 m/s, 3.5 mph) North (360°)
Visibility8 mi. (12.9 km)
Clouds Ceiling: Overcast 5,500 ft. (1,676 m)
Altimeter29.46 in.Hg (998 mB)
Precipitiation0.03 in. (1 mm)
Relative humidity86 %
Density altitude-412 ft. (-126 m)
Sea-level pressure99.7 kPa (997 mB, 29.45 in.Hg)
Remarks Fully automated report
Automated weather observing station with precipitation discriminator
Flight conditions Visual Meteorological Conditions
Raw dataKHWV 231956Z AUTO 36003KT 8SM -RA OVC055 06/04 A2946 RMK AO2 SLP974 P0003 T00610039
An error has occurred. This application may no longer respond until reloaded. Reload 🗙